createdAt,value
2019-01-21T00:02:59.492Z,23.30
2019-01-21T00:33:02.967Z,22.37
2019-01-21T01:03:06.444Z,49.63
2019-01-21T01:33:09.914Z,42.87
2019-01-21T02:03:13.463Z,122.33
2019-01-21T02:33:37.444Z,26.20
2019-01-21T03:03:50.064Z,17.13
2019-01-21T03:34:24.083Z,23.53
2019-01-21T04:04:39.524Z,18.77
2019-01-21T04:35:04.024Z,32.50
2019-01-21T05:05:13.616Z,21.97
2019-01-21T05:35:40.068Z,19.43
2019-01-21T06:06:01.790Z,44.87
2019-01-21T06:36:14.291Z,22.23
2019-01-21T07:06:23.978Z,14.67
2019-01-21T07:36:45.752Z,20.53
2019-01-21T08:07:00.775Z,21.90
2019-01-21T11:40:11.743Z,18.73
2019-01-21T12:10:24.233Z,26.83
2019-01-21T12:40:45.958Z,33.97
2019-01-21T13:10:58.457Z,25.60
2019-01-21T13:41:20.064Z,25.23
2019-01-21T14:11:43.184Z,28.63
2019-01-21T14:41:52.594Z,33.33
2019-01-21T15:12:30.044Z,27.80
2019-01-21T15:42:42.694Z,32.60
2019-01-21T16:12:49.365Z,32.57
2019-01-21T16:42:52.829Z,35.73
2019-01-21T17:12:56.307Z,30.83
2019-01-21T17:43:00.017Z,91.50
2019-01-21T18:29:57.008Z,36.20
2019-01-21T19:00:00.476Z,29.17
2019-01-21T19:30:07.243Z,30.07
2019-01-21T20:00:14.182Z,33.97
2019-01-21T20:30:22.935Z,32.97
2019-01-21T21:00:30.739Z,31.80
2019-01-21T21:30:34.348Z,36.43
2019-01-21T22:00:37.876Z,40.53
2019-01-21T22:30:41.346Z,40.90
2019-01-21T23:00:52.799Z,113.87
2019-01-21T23:30:56.257Z,316.83
